x

South Bermuda - 300 Nm Sse Of Bermuda (41049) Wave Buoy

10:50am - Thu 5th Mar 2015 All times are UTC.

  • Sig Wave height 6.6ft
  • Swell Direction
  • Peak Period 10s
  • Average Period 7s
  • Wind
    11mph, 13mph gusts
  • Sea Temp 74°f
  • Air Temp 72°f
  • Sea Pressure 1025.4mb

More Historic Weather Station data

Upgrade to MSW Pro to gain access to the past 30 days of data for over 8000 Wavebouys and Weather Stations around the globe.

Join Pro

Comparision Forecast

View Surf forecast
   
Thu 03/05 10:50am 6.5ft 10s 7s 11 13 mph 1025.4mb 74f 72f
9:50am 6ft 11s 7s 11 13 mph 1024.7mb 74f 72f
8:50am 6ft 11s 7s 11 13 mph 1024.5mb 74f 72f
7:50am 7ft 9s 7s 9 13 mph 1024.7mb 74f 72f
6:50am 7ft 10s 7s 11 13 mph 1025.1mb 74f 72f
5:50am 8ft 11s 7s 13 16 mph 1025.7mb 74f 72f
4:50am 8ft 11s 8s 13 16 mph 1025.8mb 74f 72f
3:50am 8ft 11s 7s 16 18 mph 1025.9mb 74f 73f
2:50am 8.5ft 11s 8s 16 18 mph 1026.1mb 74f 73f
1:50am 8.5ft 11s 8s 16 18 mph 1025.8mb 74f 73f
12:50am 8.5ft 11s 8s 16 18 mph 1025.7mb 74f 73f
Wed 03/04 11:50pm 8.5ft 10s 7s 16 18 mph 1025.2mb 74f 73f
10:50pm 7ft 10s 7s 16 18 mph 1024.6mb 74f 73f
9:50pm 9ft 10s 8s 16 18 mph 1024.3mb 74f 73f
8:50pm 7.5ft 11s 7s 13 16 mph 1024.2mb 74f 73f
7:50pm 7ft 11s 7s 13 18 mph 1024.2mb 74f 73f
6:50pm 8ft 11s 7s 13 16 mph 1024.3mb 74f 73f
5:50pm 7ft 11s 7s 13 16 mph 1024.1mb 74f 73f
4:50pm 7.5ft 10s 7s 16 20 mph 1024.3mb 74f 73f
3:50pm 7.5ft 9s 7s 18 20 mph 1024.9mb 74f 73f
2:50pm 7.5ft 11s 6s 18 20 mph 1025.2mb 74f 73f
1:50pm 7.5ft 10s 6s 18 22 mph 1025.2mb 74f 73f
12:50pm 7ft 10s 6s 18 22 mph 1024.9mb 74f 73f
11:50am 7ft 11s 6s 18 22 mph 1023.9mb 74f 72f
10:50am 6.5ft 11s 6s 20 25 mph 1023mb 74f 71f
9:50am 7ft 11s 6s 20 22 mph 1022.2mb 74f 72f
8:50am 7ft 7s 6s 20 25 mph 1021.7mb 74f 72f
7:50am 6.5ft 9s 6s 20 25 mph 1021.6mb 74f 71f
6:50am 6ft 11s 6s 16 18 mph 1022.2mb 74f 69f
5:50am 5.5ft 10s 6s 18 22 mph 1022.7mb 74f 70f
4:50am 5.5ft 10s 6s 18 20 mph 1023.3mb 74f 71f
3:50am 5ft 11s 6s 18 20 mph 1022.9mb 74f 71f
2:50am 5ft 11s 6s 13 18 mph 1022.5mb 74f 69f
1:50am 5ft 10s 7s 11 13 mph 1023.2mb 74f 71f
12:50am 5ft 11s 7s 16 18 mph 1022.4mb 74f 71f
Tue 03/03 11:50pm 5ft 9s 7s 13 16 mph 1021.9mb 74f 71f
10:50pm 5ft 11s 8s 7 18 mph 1021.7mb 75f 70f
9:50pm 5.5ft 11s 8s 7
mph
1021.1mb 75f 73f
8:50pm 5ft 10s 8s 7 9 mph 1020.8mb 76f 74f
7:50pm 5.5ft 11s 8s 7 9 mph 1020.8mb 76f 74f
6:50pm 6ft 9s 8s 4 7 mph 1020.9mb 76f 73f
5:50pm 6ft 11s 8s 4
mph
1021.3mb 76f 73f
4:50pm 5.5ft 11s 8s 7 9 mph 1022.1mb 76f 73f
3:50pm 5ft 9s 8s 2
mph
1022.3mb 75f 73f
2:50pm 5.5ft 11s 8s 2 4 mph 1022.4mb 74f 72f
1:50pm 6ft 9s 8s 2 4 mph 1022.3mb 74f 72f
12:50pm 6ft 9s 7s  -  2 mph 1021.9mb 74f 71f
11:50am 5.5ft 9s 7s 7 9 mph 1021.2mb 74f 70f
10:50am 6ft 11s 7s 4 7 mph 1020.4mb 74f 72f
9:50am 6ft 10s 8s 4 7 mph 1019.7mb 74f 71f
8:50am 6ft 8s 7s 4 7 mph 1019.6mb 74f 71f
7:50am 6ft 9s 7s 7 9 mph 1019.6mb 74f 71f
6:50am 6ft 9s 7s 7 9 mph 1019.9mb 74f 72f
5:50am 6.5ft 11s 7s 2 4 mph 1020.6mb 74f 72f
4:50am 6ft 9s 7s 2 4 mph 1021.2mb 74f 72f
3:50am 6ft 10s 7s 2 4 mph 1021.7mb 74f 72f
2:50am 6.5ft 9s 7s 2 4 mph 1022.1mb 74f 72f
1:50am 6.5ft 10s 7s 2
mph
1022.4mb 74f 72f
12:50am 6.5ft 8s 7s  -  2 mph 1022.3mb 74f 73f
Mon 03/02 11:50pm 6.5ft 9s 7s  -  2 mph 1021.8mb 74f 73f
10:50pm 6.5ft 8s 7s 2
mph
1021.7mb 74f 73f
9:50pm 6.5ft 9s 7s 4 7 mph 1021.3mb 74f 73f
8:50pm 7ft 8s 7s 2 4 mph 1021.2mb 75f 73f
7:50pm 7ft 8s 7s 2 4 mph 1021.4mb 75f 74f
6:50pm 7ft 9s 7s 4 7 mph 1021.9mb 75f 73f
5:50pm 6.5ft 9s 7s 4 7 mph 1022.3mb 74f 73f
4:50pm 7ft 8s 7s 7 9 mph 1023.1mb 74f 73f
3:50pm 8ft 9s 8s 9 11 mph 1024.1mb 74f 73f
2:50pm 7ft 8s 7s 9 11 mph 1024.8mb 74f 73f
1:50pm 7ft 9s 7s 7 9 mph 1024.9mb 74f 73f
12:50pm 7ft 9s 7s 9 11 mph 1024.9mb 74f 73f
11:50am 7ft 9s 7s 9 13 mph 1024.4mb 74f 73f
10:50am 7ft 9s 7s 9 11 mph 1024mb 74f 72f
9:50am 7ft 8s 7s 11 13 mph 1023.7mb 74f 72f
8:50am 7ft 9s 7s 9 11 mph 1023.7mb 74f 72f
7:50am 6.5ft 9s 7s 11 13 mph 1023.9mb 74f 72f
6:50am 6ft 9s 7s 11 13 mph 1024.4mb 74f 72f
5:50am 6ft 9s 7s 11 13 mph 1025.2mb 74f 72f
4:50am 6.5ft 9s 7s 13 16 mph 1025.6mb 74f 73f
3:50am 7ft 9s 7s 13 16 mph 1025.9mb 74f 73f
2:50am 5.5ft 9s 7s 13 16 mph 1026.4mb 74f 73f
1:50am 6ft 9s 6s 16 18 mph 1026.5mb 74f 73f
12:50am 5.5ft 9s 6s 13 16 mph 1026.3mb 74f 73f
Sun 03/01 11:50pm 5.5ft 9s 7s 13 16 mph 1026mb 74f 73f
10:50pm 5.5ft 9s 7s 13 16 mph 1025.8mb 74f 73f
9:50pm 5.5ft 9s 7s 11 13 mph 1025.5mb 74f 73f
8:50pm 6ft 9s 7s 13 16 mph 1025.3mb 74f 73f
7:50pm 5.5ft 9s 7s 11 13 mph 1025mb 74f 73f
6:50pm 5.5ft 9s 7s 11 13 mph 1025.3mb 74f 73f
5:50pm 5.5ft 9s 7s 11 13 mph 1025.7mb 74f 73f
4:50pm 5.5ft 9s 7s 9 11 mph 1026.6mb 74f 73f
3:50pm 5.5ft 9s 7s 11 13 mph 1027.2mb 74f 73f
2:50pm 4.5ft 8s 6s 11
mph
1027.7mb 74f 73f
1:50pm 6ft 9s 7s 11 13 mph 1027.8mb 74f 73f
12:50pm 5ft 8s 7s 11 13 mph 1027.6mb 74f 73f